createdAt,value
2018-03-28T00:00:24.872Z,"    0"
2018-03-28T00:05:20.964Z,"    0"
2018-03-28T00:10:20.675Z,"    0"
2018-03-28T00:15:20.296Z,"    0"
2018-03-28T00:20:19.012Z,"    0"
2018-03-28T00:25:14.972Z,"    0"
2018-03-28T00:30:14.644Z,"    0"
2018-03-28T00:35:13.792Z,"    0"
2018-03-28T00:40:13.573Z,"    0"
2018-03-28T00:45:10.013Z,"    0"
2018-03-28T00:50:10.633Z,"    0"
2018-03-28T00:55:05.452Z,"    0"
2018-03-28T01:00:01.439Z,"    0"
2018-03-28T01:05:01.116Z,"    0"
2018-03-28T01:09:59.834Z,"    0"
2018-03-28T01:14:58.514Z,"    0"
2018-03-28T01:19:58.964Z,"    0"
2018-03-28T01:24:53.482Z,"    0"
2018-03-28T01:29:50.232Z,"    0"
2018-03-28T01:34:46.014Z,"    0"
2018-03-28T01:39:46.976Z,"    0"
2018-03-28T01:44:42.541Z,"    0"
2018-03-28T01:49:39.192Z,"    0"
2018-03-28T01:54:35.335Z,"    0"
2018-03-28T01:59:31.948Z,"    0"
2018-03-28T02:04:28.579Z,"    0"
2018-03-28T02:09:25.177Z,"    0"
2018-03-28T02:14:21.556Z,"    0"
2018-03-28T02:19:17.741Z,"    0"
2018-03-28T02:24:18.758Z,"    0"
2018-03-28T02:29:17.317Z,"    0"
2018-03-28T02:34:17.358Z,"    0"
2018-03-28T02:39:13.048Z,"    0"
2018-03-28T02:44:12.305Z,"    0"
2018-03-28T02:49:07.100Z,"    0"
2018-03-28T02:54:04.290Z,"    0"
2018-03-28T02:59:01.000Z,"    0"
2018-03-28T03:04:00.301Z,"    0"
2018-03-28T03:08:59.540Z,"    0"
2018-03-28T03:13:54.398Z,"    0"
2018-03-28T03:18:55.081Z,"    0"
2018-03-28T03:23:50.220Z,"    0"
2018-03-28T03:28:49.982Z,"    0"
2018-03-28T03:33:48.410Z,"    0"
2018-03-28T03:38:44.462Z,"    0"
2018-03-28T03:43:44.800Z,"    0"
2018-03-28T03:48:43.530Z,"    0"
2018-03-28T03:53:39.349Z,"    0"
2018-03-28T03:58:39.062Z,"    0"
2018-03-28T04:03:33.976Z,"    0"
2018-03-28T04:08:29.641Z,"    0"
2018-03-28T04:13:30.202Z,"    0"
2018-03-28T04:18:24.911Z,"    0"
2018-03-28T04:23:21.009Z,"    0"
2018-03-28T04:28:20.705Z,"    0"
2018-03-28T04:33:19.823Z,"    0"
2018-03-28T04:38:15.440Z,"    0"
2018-03-28T04:43:12.047Z,"    0"
2018-03-28T04:48:11.495Z,"    0"
2018-03-28T04:53:11.624Z,"    0"
2018-03-28T04:58:11.205Z,"    4"
2018-03-28T05:03:06.984Z,"   12"
2018-03-28T05:08:03.523Z,"   32"
2018-03-28T05:13:04.925Z,"   60"
2018-03-28T05:18:04.320Z,"   80"
2018-03-28T05:23:02.935Z,"   52"
2018-03-28T05:28:01.725Z,"   80"
2018-03-28T05:33:02.506Z,"  144"
2018-03-28T05:38:02.048Z,"  100"
2018-03-28T05:43:00.698Z,"  192"
2018-03-28T05:47:59.439Z,"  236"
2018-03-28T05:52:54.483Z,"  360"
2018-03-28T05:57:54.502Z,"  380"
2018-03-28T06:02:53.987Z,"  392"
2018-03-28T06:07:48.821Z,"  452"
2018-03-28T06:12:49.440Z,"  468"
2018-03-28T06:17:48.804Z,"  580"
2018-03-28T06:22:47.850Z,"  648"
2018-03-28T06:27:43.483Z,"  640"
2018-03-28T06:32:43.433Z,"  780"
2018-03-28T06:37:43.595Z,"  872"
2018-03-28T06:42:42.174Z," 1168"
2018-03-28T06:47:41.420Z," 1416"
2018-03-28T06:52:36.526Z," 1152"
2018-03-28T06:57:37.277Z,"  840"
2018-03-28T07:02:37.069Z," 1152"
2018-03-28T07:07:32.512Z," 1556"
2018-03-28T07:12:32.062Z," 1900"
2018-03-28T07:17:30.903Z," 2668"
2018-03-28T07:22:30.792Z," 2696"
2018-03-28T07:27:25.545Z," 3064"
2018-03-28T07:32:21.401Z," 1976"
2018-03-28T07:37:21.195Z," 2440"
2018-03-28T07:42:16.411Z," 1956"
2018-03-28T07:47:12.250Z," 3596"
2018-03-28T07:52:09.003Z," 2244"
2018-03-28T07:57:04.428Z," 2616"
2018-03-28T08:02:05.353Z," 2056"
2018-03-28T08:07:03.991Z," 3496"
2018-03-28T08:12:03.067Z," 4320"
2018-03-28T08:17:02.426Z," 5104"
2018-03-28T08:21:58.538Z," 9232"
2018-03-28T08:26:58.474Z," 8268"
2018-03-28T08:31:57.860Z," 7976"
2018-03-28T08:36:53.802Z," 8496"
2018-03-28T08:41:50.947Z," 9636"
2018-03-28T08:46:47.749Z," 9268"
2018-03-28T08:51:44.264Z,10544
2018-03-28T08:56:44.806Z,12876
2018-03-28T09:01:40.801Z,13140
2018-03-28T09:06:41.785Z,13752
2018-03-28T09:11:38.031Z,10220
2018-03-28T09:16:33.515Z,10172
2018-03-28T09:21:33.193Z," 9872"
2018-03-28T09:26:28.211Z," 9564"
2018-03-28T09:31:28.001Z," 8464"
2018-03-28T09:36:27.871Z," 9024"
2018-03-28T09:41:23.653Z," 7388"
2018-03-28T09:46:22.875Z," 9216"
2018-03-28T09:51:18.856Z,12528
2018-03-28T09:56:18.687Z,11716
2018-03-28T10:01:13.904Z,13644
2018-03-28T10:06:13.908Z,13184
2018-03-28T10:11:09.463Z,12928
2018-03-28T10:16:05.229Z,10352
2018-03-28T10:21:00.896Z," 9496"
2018-03-28T10:25:56.620Z," 9564"
2018-03-28T10:30:53.829Z," 6448"
2018-03-28T10:35:49.844Z," 8368"
2018-03-28T10:40:45.602Z," 8836"
2018-03-28T10:45:41.791Z," 9816"
2018-03-28T10:50:42.460Z,10252
2018-03-28T10:55:37.023Z," 8160"
2018-03-28T11:00:37.874Z," 7888"
2018-03-28T11:05:32.540Z," 7820"
2018-03-28T11:10:32.259Z," 8344"
2018-03-28T11:15:28.175Z," 7880"
2018-03-28T11:20:27.740Z," 7440"
2018-03-28T11:25:22.562Z," 6656"
2018-03-28T11:30:18.301Z," 5384"
2018-03-28T11:35:18.818Z," 6184"
2018-03-28T11:40:17.780Z," 6460"
2018-03-28T11:45:17.682Z," 6200"
2018-03-28T11:50:16.298Z," 4632"
2018-03-28T11:55:11.701Z," 5068"
2018-03-28T12:00:10.942Z," 5888"
2018-03-28T12:05:06.959Z," 5408"
2018-03-28T12:10:03.530Z," 4412"
2018-03-28T12:15:03.883Z," 3740"
2018-03-28T12:19:58.451Z," 4168"
2018-03-28T12:24:59.404Z," 5804"
2018-03-28T12:29:53.804Z," 5936"
2018-03-28T12:34:53.681Z," 5044"
2018-03-28T12:39:52.673Z," 4004"
2018-03-28T12:44:51.352Z," 3468"
2018-03-28T12:49:46.219Z," 3836"
2018-03-28T12:54:41.862Z," 3728"
2018-03-28T12:59:37.653Z," 3540"
2018-03-28T13:04:38.912Z," 5028"
2018-03-28T13:09:33.674Z," 4168"
2018-03-28T13:14:33.114Z," 2464"
2018-03-28T13:19:32.657Z," 2132"
2018-03-28T13:24:31.315Z," 2320"
2018-03-28T13:29:32.374Z," 1408"
2018-03-28T13:34:30.275Z," 1540"
2018-03-28T13:39:25.543Z," 1400"
2018-03-28T13:44:21.557Z," 1096"
2018-03-28T13:49:17.334Z," 1440"
2018-03-28T13:54:13.001Z," 1680"
2018-03-28T13:59:14.012Z," 2512"
2018-03-28T14:04:09.772Z," 2136"
2018-03-28T14:09:05.055Z," 2116"
2018-03-28T14:14:05.987Z," 3308"
2018-03-28T14:19:00.930Z," 3364"
2018-03-28T14:23:56.823Z," 2440"
2018-03-28T14:28:52.614Z," 2928"
2018-03-28T14:33:53.185Z," 1512"
2018-03-28T14:38:52.098Z," 1944"
2018-03-28T14:43:50.861Z," 2244"
2018-03-28T14:48:46.951Z," 2804"
2018-03-28T14:53:47.433Z," 2776"
2018-03-28T14:58:46.139Z," 2496"
2018-03-28T15:03:42.100Z," 2620"
2018-03-28T15:08:37.757Z," 2536"
2018-03-28T15:13:38.489Z," 3348"
2018-03-28T15:18:37.189Z," 3256"
2018-03-28T15:23:32.054Z," 2664"
2018-03-28T15:28:32.710Z," 2660"
2018-03-28T15:33:31.436Z," 1412"
2018-03-28T15:38:26.976Z," 1428"
2018-03-28T15:43:27.898Z," 1356"
2018-03-28T15:48:22.481Z," 1428"
2018-03-28T15:53:19.294Z," 1144"
2018-03-28T15:58:14.826Z," 1208"
2018-03-28T16:03:15.643Z," 1236"
2018-03-28T16:08:10.520Z," 1108"
2018-03-28T16:13:12.133Z," 1724"
2018-03-28T16:18:07.011Z," 1628"
2018-03-28T16:23:07.736Z," 1948"
2018-03-28T16:28:07.535Z," 2256"
2018-03-28T16:33:07.489Z," 1648"
2018-03-28T16:38:06.561Z," 1804"
2018-03-28T16:43:03.153Z," 2724"
2018-03-28T16:48:02.739Z," 2600"
2018-03-28T16:52:57.879Z," 3192"
2018-03-28T16:57:53.552Z," 2800"
2018-03-28T17:02:53.535Z," 1620"
2018-03-28T17:07:48.764Z," 1280"
2018-03-28T17:12:44.795Z,"  568"
2018-03-28T17:17:41.470Z,"  340"
2018-03-28T17:22:40.752Z,"  352"
2018-03-28T17:27:40.793Z,"  268"
2018-03-28T17:32:35.434Z,"  204"
2018-03-28T17:37:36.313Z,"  180"
2018-03-28T17:42:31.696Z,"   92"
2018-03-28T17:47:27.396Z,"   60"
2018-03-28T17:52:28.813Z,"   32"
2018-03-28T17:57:27.943Z,"   28"
2018-03-28T18:02:27.825Z,"   16"
2018-03-28T18:07:27.994Z,"    8"
2018-03-28T18:12:27.573Z,"    4"
2018-03-28T18:17:28.003Z,"    0"
2018-03-28T18:22:23.603Z,"    0"
2018-03-28T18:27:23.836Z,"    0"
2018-03-28T18:32:19.526Z,"    0"
2018-03-28T18:37:21.816Z,"    0"
2018-03-28T18:42:23.893Z,"    0"
2018-03-28T18:47:18.993Z,"    0"
2018-03-28T18:52:20.375Z,"    0"
2018-03-28T18:57:16.067Z,"    0"
2018-03-28T19:02:14.056Z,"    0"
2018-03-28T19:07:14.943Z,"    0"
2018-03-28T19:12:16.452Z,"    0"
2018-03-28T19:17:18.705Z,"    0"
2018-03-28T19:27:25.966Z,"    0"
2018-03-28T19:32:23.102Z,"    0"
2018-03-28T19:37:19.461Z,"    0"
2018-03-28T19:42:16.068Z,"    0"
2018-03-28T19:47:15.519Z,"    0"
2018-03-28T19:52:16.680Z,"    0"
2018-03-28T19:57:12.999Z,"    0"
2018-03-28T20:02:14.816Z,"    0"
2018-03-28T20:07:09.562Z,"    0"
2018-03-28T20:12:05.242Z,"    0"
2018-03-28T20:17:05.194Z,"    0"
2018-03-28T20:22:04.699Z,"    0"
2018-03-28T20:27:00.416Z,"    0"
2018-03-28T20:32:02.004Z,"    0"
2018-03-28T20:37:01.422Z,"    0"
2018-03-28T20:41:58.198Z,"    0"
2018-03-28T20:46:53.519Z,"    0"
2018-03-28T20:51:53.339Z,"    0"
2018-03-28T20:56:48.535Z,"    0"
2018-03-28T21:01:48.376Z,"    0"
2018-03-28T21:06:47.293Z,"    0"
2018-03-28T21:11:42.494Z,"    0"
2018-03-28T21:16:42.177Z,"    0"
2018-03-28T21:21:37.193Z,"    0"
2018-03-28T21:31:43.128Z,"    0"
2018-03-28T21:36:42.647Z,"    0"
2018-03-28T21:41:37.674Z,"    0"
2018-03-28T21:46:38.274Z,"    0"
2018-03-28T21:51:33.867Z,"    0"
2018-03-28T21:56:34.418Z,"    0"
2018-03-28T22:01:33.000Z,"    0"
2018-03-28T22:06:31.652Z,"    0"
2018-03-28T22:11:30.223Z,"    0"
2018-03-28T22:16:25.995Z,"    0"
2018-03-28T22:21:22.377Z,"    0"
2018-03-28T22:26:19.213Z,"    0"
2018-03-28T22:31:19.973Z,"    0"
2018-03-28T22:36:16.039Z,"    0"
2018-03-28T22:41:13.752Z,"    0"
2018-03-28T22:46:13.956Z,"    0"
2018-03-28T22:51:08.954Z,"    0"
2018-03-28T22:56:05.590Z,"    0"
2018-03-28T23:01:06.086Z,"    0"
2018-03-28T23:06:01.274Z,"    0"
2018-03-28T23:10:57.169Z,"    0"
2018-03-28T23:15:57.714Z,"    0"
2018-03-28T23:20:58.742Z,"    0"
2018-03-28T23:25:57.710Z,"    0"
2018-03-28T23:30:53.868Z,"    0"
2018-03-28T23:35:54.140Z,"    0"
2018-03-28T23:40:49.973Z,"    0"
2018-03-28T23:45:49.377Z,"    0"
2018-03-28T23:50:49.759Z,"    0"
2018-03-28T23:55:45.250Z,"    0"
